Avent, Mississippi
Current Conditions -  °F | °C
As of 7:53 PM on Monday 22 Dec 2014 (Local Time) from KHBG Reporting Station
Scattered Clouds Scattered Clouds  
Wind Chill: 68°   Ceiling: Unl
Heat Index: 68°   Visibility: 9mi
Dew Point: 66°   Wind: 7mph
Humidity: 93%   Direction: 180°S
Pressure: 29.74"   Gusts: NA
Location:  31.0532°N, 88.8084°W
Report Text: KHBG 230153Z AUTO 18006KT 9SM SCT012 SCT046 20/19 A2974 RMK AO2 SLP068 T02000189
Loading
Personal Weather Stations






























Interactive Weather Map New forecast layout! Learn more

10-Day Weather Forecast

Advertisements
Track Severe Weather on mobile